createdAt,value
2022-11-27T00:01:54.565Z,7.30
2022-11-27T00:06:03.433Z,7.30
2022-11-27T00:10:09.190Z,7.30
2022-11-27T00:14:13.293Z,7.30
2022-11-27T00:18:15.295Z,7.30
2022-11-27T00:22:17.190Z,7.30
2022-11-27T00:26:19.501Z,7.30
2022-11-27T00:30:21.505Z,7.30
2022-11-27T00:34:23.475Z,7.30
2022-11-27T00:38:25.435Z,7.30
2022-11-27T00:42:27.601Z,7.20
2022-11-27T00:46:30.960Z,7.20
2022-11-27T00:50:34.073Z,7.20
2022-11-27T00:54:36.042Z,7.20
2022-11-27T00:58:38.080Z,7.20
2022-11-27T01:02:40.731Z,7.10
2022-11-27T01:06:49.746Z,7.00
2022-11-27T01:10:58.963Z,6.90
2022-11-27T01:15:10.644Z,6.90
2022-11-27T01:19:13.062Z,6.90
2022-11-27T01:23:15.006Z,6.90
2022-11-27T01:27:16.860Z,6.90
2022-11-27T01:31:21.815Z,6.90
2022-11-27T01:35:23.863Z,6.90
2022-11-27T01:39:25.798Z,6.90
2022-11-27T01:43:43.677Z,6.80
2022-11-27T01:47:57.633Z,6.80
2022-11-27T01:52:21.285Z,6.70
2022-11-27T01:56:23.279Z,6.60
2022-11-27T02:00:25.383Z,6.40
2022-11-27T02:04:27.402Z,6.40
2022-11-27T02:08:35.059Z,6.20
2022-11-27T02:13:26.793Z,6.10
2022-11-27T02:17:40.792Z,6.00
2022-11-27T02:21:57.934Z,5.90
2022-11-27T02:26:27.530Z,5.80
2022-11-27T02:30:31.177Z,5.80
2022-11-27T02:34:38.014Z,5.70
2022-11-27T02:38:44.490Z,5.60
2022-11-27T02:42:56.163Z,5.60
2022-11-27T02:46:58.142Z,5.50
2022-11-27T02:51:00.368Z,5.40
2022-11-27T02:55:05.540Z,5.30
2022-11-27T02:59:10.466Z,5.20
2022-11-27T03:03:13.476Z,5.20
2022-11-27T03:07:31.566Z,5.10
2022-11-27T03:11:40.454Z,5.10
2022-11-27T03:16:00.906Z,5.10
2022-11-27T03:20:22.480Z,5.10
2022-11-27T03:24:24.817Z,5.10
2022-11-27T03:28:27.006Z,5.10
2022-11-27T03:32:29.167Z,5.10
2022-11-27T03:36:31.098Z,5.10
2022-11-27T03:40:50.319Z,5.00
2022-11-27T03:45:22.861Z,4.90
2022-11-27T03:50:04.651Z,4.90
2022-11-27T03:54:50.193Z,4.70
2022-11-27T03:59:20.767Z,4.60
2022-11-27T04:03:25.663Z,4.50
2022-11-27T04:07:27.574Z,4.30
2022-11-27T04:11:29.539Z,4.20
2022-11-27T04:15:31.420Z,4.20
2022-11-27T04:19:33.301Z,4.10
2022-11-27T04:23:35.212Z,4.10
2022-11-27T04:27:37.095Z,4.00
2022-11-27T04:31:39.140Z,3.90
2022-11-27T04:35:41.111Z,4.00
2022-11-27T04:39:42.887Z,3.90
2022-11-27T04:43:44.771Z,3.90
2022-11-27T04:47:46.684Z,3.90
2022-11-27T04:51:48.606Z,3.80
2022-11-27T04:55:52.505Z,3.80
2022-11-27T04:59:54.656Z,3.70
2022-11-27T05:03:56.464Z,3.60
2022-11-27T05:07:58.403Z,3.50
2022-11-27T05:12:00.265Z,3.50
2022-11-27T05:16:02.337Z,3.30
2022-11-27T05:20:05.027Z,3.30
2022-11-27T05:24:07.157Z,3.30
2022-11-27T05:28:09.039Z,3.30
2022-11-27T05:32:11.006Z,3.20
2022-11-27T05:36:13.047Z,3.20
2022-11-27T05:40:19.520Z,3.20
2022-11-27T05:44:22.094Z,3.10
2022-11-27T05:48:24.482Z,3.00
2022-11-27T05:52:27.203Z,3.00
2022-11-27T05:56:29.504Z,2.90
2022-11-27T06:00:31.701Z,2.90
2022-11-27T06:04:34.904Z,2.90
2022-11-27T06:08:37.692Z,2.80
2022-11-27T06:12:39.712Z,2.70
2022-11-27T06:16:41.720Z,2.60
2022-11-27T06:20:46.862Z,2.70
2022-11-27T06:24:52.090Z,2.60
2022-11-27T06:28:54.893Z,2.70
2022-11-27T06:32:56.919Z,2.60
2022-11-27T06:36:59.432Z,2.70
2022-11-27T06:41:19.142Z,2.70
2022-11-27T06:45:21.300Z,2.70
2022-11-27T06:49:27.167Z,2.60
2022-11-27T06:53:33.529Z,2.50
2022-11-27T06:57:35.330Z,2.50
2022-11-27T07:01:37.211Z,2.40
2022-11-27T07:06:15.298Z,2.50
2022-11-27T07:10:17.404Z,2.50
2022-11-27T07:14:19.251Z,2.50
2022-11-27T07:18:21.166Z,2.60
2022-11-27T07:22:29.108Z,2.60
2022-11-27T09:42:13.405Z,5.70
2022-11-27T09:46:28.825Z,5.70
2022-11-27T09:50:41.358Z,5.80
2022-11-27T09:55:10.122Z,5.90
2022-11-27T09:59:21.978Z,5.90
2022-11-27T10:03:50.160Z,5.90
2022-11-27T10:08:12.499Z,6.00
2022-11-27T10:24:44.715Z,6.20
2022-11-27T10:35:07.558Z,6.70
2022-11-27T10:45:50.190Z,7.00
2022-11-27T11:01:05.435Z,7.50
2022-11-27T11:16:39.240Z,7.90
2022-11-27T11:22:09.173Z,8.10
2022-11-27T11:27:26.224Z,8.30
2022-11-27T11:32:07.574Z,8.40
2022-11-27T11:46:51.713Z,8.60
2022-11-27T11:52:31.003Z,8.70
2022-11-27T11:57:11.099Z,8.70
2022-11-27T12:02:22.675Z,8.70
2022-11-27T12:07:30.136Z,8.90
2022-11-27T12:11:47.836Z,9.10
2022-11-27T12:16:29.346Z,9.20
2022-11-27T12:21:12.515Z,9.20
2022-11-27T12:25:58.474Z,9.20
2022-11-27T12:48:49.897Z,9.10
2022-11-27T13:38:18.565Z,8.80
2022-11-27T13:42:22.580Z,8.80
2022-11-27T13:46:27.571Z,8.80
2022-11-27T13:50:31.860Z,8.70
2022-11-27T13:54:36.789Z,8.70
2022-11-27T13:58:40.786Z,8.70
2022-11-27T14:02:50.941Z,8.60
2022-11-27T14:07:07.046Z,8.60
2022-11-27T14:11:14.002Z,8.50
2022-11-27T14:15:18.932Z,8.50
2022-11-27T14:19:35.822Z,8.40
2022-11-27T14:23:49.956Z,8.20
2022-11-27T14:28:12.695Z,8.10
2022-11-27T14:32:21.362Z,8.00
2022-11-27T14:36:31.899Z,8.00
2022-11-27T14:40:33.787Z,7.80
2022-11-27T14:44:35.701Z,7.80
2022-11-27T14:48:57.432Z,7.70
2022-11-27T14:52:59.370Z,7.50
2022-11-27T14:57:01.443Z,7.50
2022-11-27T15:01:09.349Z,7.40
2022-11-27T15:05:25.355Z,7.30
2022-11-27T15:09:43.434Z,7.20
2022-11-27T15:13:51.511Z,7.10
2022-11-27T15:17:58.748Z,7.00
2022-11-27T15:22:00.672Z,6.90
2022-11-27T15:26:02.575Z,6.70
2022-11-27T15:30:12.867Z,6.70
2022-11-27T15:34:17.456Z,6.60
2022-11-27T15:38:19.359Z,6.50
2022-11-27T15:42:21.499Z,6.40
2022-11-27T15:46:32.714Z,6.40
2022-11-27T15:50:39.890Z,6.30
2022-11-27T15:54:42.098Z,6.20
2022-11-27T15:58:44.149Z,6.10
2022-11-27T16:02:46.213Z,6.10
2022-11-27T16:06:48.133Z,6.00
2022-11-27T16:10:50.045Z,5.90
2022-11-27T16:15:02.930Z,5.90
2022-11-27T16:19:06.423Z,5.80
2022-11-27T16:23:08.426Z,5.70
2022-11-27T16:27:18.389Z,5.60
2022-11-27T16:31:20.610Z,5.50
2022-11-27T16:35:32.056Z,5.40
2022-11-27T16:39:38.467Z,5.30
2022-11-27T16:50:47.455Z,5.10
2022-11-27T16:54:52.935Z,5.10
2022-11-27T17:00:15.943Z,5.00
2022-11-27T17:08:48.525Z,4.90
2022-11-27T19:16:56.585Z,4.10
2022-11-27T19:21:01.853Z,4.10
2022-11-27T19:25:09.066Z,4.10
2022-11-27T19:29:18.433Z,4.20
2022-11-27T19:46:20.569Z,4.10
2022-11-27T20:12:22.972Z,3.80
2022-11-27T20:16:25.369Z,3.60
2022-11-27T20:20:33.933Z,3.60
2022-11-27T20:24:58.128Z,3.60
2022-11-27T20:29:01.313Z,3.70
2022-11-27T20:33:07.982Z,3.70
2022-11-27T20:37:19.406Z,3.80
2022-11-27T20:41:27.178Z,3.90
2022-11-27T20:45:32.186Z,4.10
2022-11-27T20:49:34.081Z,4.20
2022-11-27T20:53:36.572Z,4.30
2022-11-27T20:57:38.648Z,4.40
2022-11-27T21:01:44.381Z,4.40
2022-11-27T21:06:31.354Z,4.40
2022-11-27T21:10:58.068Z,4.40
2022-11-27T21:15:20.830Z,4.40
2022-11-27T21:19:53.766Z,4.40
2022-11-27T21:24:07.027Z,4.40
2022-11-27T21:28:36.844Z,4.40
2022-11-27T21:32:51.203Z,4.40
2022-11-27T21:36:59.419Z,4.40
2022-11-27T21:41:01.304Z,4.40
2022-11-27T21:45:05.715Z,4.40
2022-11-27T21:49:23.028Z,4.30
2022-11-27T21:53:25.027Z,4.30
2022-11-27T21:57:26.897Z,4.30
2022-11-27T22:01:28.827Z,4.30
2022-11-27T22:05:30.842Z,4.30
2022-11-27T22:09:33.641Z,4.30
2022-11-27T22:13:36.201Z,4.30
2022-11-27T22:17:38.505Z,4.30
2022-11-27T22:21:40.380Z,4.30
2022-11-27T22:25:42.183Z,4.30
2022-11-27T22:29:44.046Z,4.30
2022-11-27T22:33:46.345Z,4.30
2022-11-27T22:37:48.389Z,4.30
2022-11-27T22:41:50.372Z,4.30
2022-11-27T22:45:52.242Z,4.30
2022-11-27T22:49:54.217Z,4.30
2022-11-27T22:53:56.102Z,4.30
2022-11-27T22:57:58.067Z,4.30
2022-11-27T23:01:59.995Z,4.30
2022-11-27T23:06:01.957Z,4.30
2022-11-27T23:10:04.251Z,4.30
2022-11-27T23:14:06.232Z,4.30
2022-11-27T23:18:08.367Z,4.30
2022-11-27T23:22:10.242Z,4.20
2022-11-27T23:26:20.437Z,4.30
2022-11-27T23:30:22.296Z,4.20
2022-11-27T23:34:24.338Z,4.20
2022-11-27T23:38:26.250Z,4.20
2022-11-27T23:42:28.245Z,4.20
2022-11-27T23:46:30.576Z,4.20
2022-11-27T23:50:32.407Z,4.20
2022-11-27T23:54:34.326Z,4.20
2022-11-27T23:58:36.354Z,4.20
